createdAt,value
2023-01-09T00:00:03.269Z,1007.62
2023-01-09T00:16:00.127Z,1007.35
2023-01-09T00:31:02.353Z,1007.05
2023-01-09T00:46:04.316Z,1006.88
2023-01-09T01:00:01.340Z,1006.74
2023-01-09T01:16:03.663Z,1006.54
2023-01-09T01:31:00.758Z,1006.51
2023-01-09T01:46:03.009Z,1006.3
2023-01-09T01:59:59.876Z,1005.96
2023-01-09T02:16:01.882Z,1005.79
2023-01-09T02:31:04.119Z,1005.59
2023-01-09T02:46:01.339Z,1005.49
2023-01-09T03:00:03.331Z,1005.15
2023-01-09T03:16:00.933Z,1004.91
2023-01-09T03:31:02.614Z,1005.08
2023-01-09T03:46:04.622Z,1004.91
2023-01-09T04:00:01.564Z,1004.68
2023-01-09T04:16:03.834Z,1004.51
2023-01-09T04:31:00.771Z,1004.51
2023-01-09T04:46:02.863Z,1004.41
2023-01-09T04:59:59.848Z,1004.37
2023-01-09T05:16:01.899Z,1004.41
2023-01-09T05:31:03.869Z,1003.97
2023-01-09T05:46:01.076Z,1003.76
2023-01-09T06:00:02.764Z,1003.97
2023-01-09T06:16:00.240Z,1004.03
2023-01-09T06:31:02.355Z,1004
2023-01-09T06:46:04.187Z,1004.03
2023-01-09T07:00:01.074Z,1004
2023-01-09T07:16:03.402Z,1004.14
2023-01-09T07:31:00.292Z,1003.83
2023-01-09T07:46:03.221Z,1004.07
2023-01-09T08:00:04.125Z,1003.93
2023-01-09T08:16:01.465Z,1003.93
2023-01-09T08:31:03.642Z,1004.07
2023-01-09T08:46:01.442Z,1003.97
2023-01-09T09:00:02.787Z,1004.1
2023-01-09T09:16:00.334Z,1004.17
2023-01-09T09:31:02.182Z,1004.24
2023-01-09T09:46:04.356Z,1004.17
2023-01-09T10:00:01.128Z,1004
2023-01-09T10:16:03.696Z,1003.73
2023-01-09T10:31:00.574Z,1003.66
2023-01-09T10:46:02.533Z,1003.83
2023-01-09T11:00:04.439Z,1003.93
2023-01-09T11:16:01.709Z,1003.7
2023-01-09T11:31:03.846Z,1003.8
2023-01-09T11:46:02.154Z,1003.83
2023-01-09T12:00:02.941Z,1004.03
2023-01-09T12:16:00.500Z,1004.1
2023-01-09T12:31:02.331Z,1004.37
2023-01-09T12:45:59.775Z,1004.54
2023-01-09T13:00:01.731Z,1004.61
2023-01-09T13:16:04.064Z,1004.74
2023-01-09T13:31:01.010Z,1004.95
2023-01-09T13:46:03.334Z,1004.68
2023-01-09T14:00:00.423Z,1004.64
2023-01-09T14:16:02.558Z,1004.58
2023-01-09T14:30:59.746Z,1004.51
2023-01-09T14:46:02.058Z,1004.61
2023-01-09T15:00:03.697Z,1004.74
2023-01-09T15:16:01.113Z,1005.12
2023-01-09T15:31:02.863Z,1005.12
2023-01-09T15:46:01.687Z,1005.49
2023-01-09T16:00:01.996Z,1005.35
2023-01-09T16:16:04.066Z,1005.46
2023-01-09T16:31:00.928Z,1005.86
2023-01-09T16:46:03.131Z,1005.69
2023-01-09T16:59:59.976Z,1005.56
2023-01-09T17:16:02.121Z,1005.49
2023-01-09T17:30:59.705Z,1005.56
2023-01-09T17:46:01.434Z,1005.52
2023-01-09T18:00:03.372Z,1005.35
2023-01-09T18:16:00.533Z,1005.25
2023-01-09T18:31:02.558Z,1005.69
2023-01-09T18:45:59.734Z,1005.73
2023-01-09T19:00:01.643Z,1005.76
2023-01-09T19:16:04.091Z,1005.79
2023-01-09T19:31:01.157Z,1005.9
2023-01-09T19:46:03.519Z,1005.93
2023-01-09T20:00:00.454Z,1006.03
2023-01-09T20:16:02.763Z,1006
2023-01-09T20:30:59.819Z,1006.07
2023-01-09T20:46:01.940Z,1006.07
2023-01-09T21:00:03.737Z,1006.07
2023-01-09T21:16:01.176Z,1006.17
2023-01-09T21:31:03.014Z,1006.07
2023-01-09T21:46:00.205Z,1006.13
2023-01-09T22:00:02.131Z,1006.44
2023-01-09T22:15:59.529Z,1006.51
2023-01-09T22:31:01.687Z,1006.68
2023-01-09T22:46:04.115Z,1006.74
2023-01-09T23:00:01.361Z,1006.68
2023-01-09T23:16:02.847Z,1006.74
2023-01-09T23:31:00.019Z,1006.84
2023-01-09T23:46:02.075Z,1006.91
